Time;durP1;ratioP1;P1;durP2;ratioP2;P2;SDS_P1;SDS_P2;PMS_P1;PMS_P2;Temp;Humidity;BMP_temperature;BMP_pressure;BME280_temperature;BME280_humidity;BME280_pressure;Samples;Min_cycle;Max_cycle;Signal;HPM_P1;HPM_P2
2022/12/29 00:01:46;;;;;;;6.18;3.92;;;;;;;12.07;100.00;99944.19;5037549;28;20044;-73
2022/12/29 00:04:15;;;;;;;7.18;3.33;;;;;;;11.99;100.00;99943.97;5035546;28;20064;-72
2022/12/29 00:06:42;;;;;;;5.13;3.15;;;;;;;11.76;100.00;99933.34;5038999;28;20190;-70
2022/12/29 00:09:10;;;;;;;5.82;3.20;;;;;;;11.69;100.00;99934.81;5029170;28;20053;-74
2022/12/29 00:11:35;;;;;;;5.85;3.05;;;;;;;11.87;100.00;99929.81;5034825;28;20045;-73
2022/12/29 00:16:45;;;;;;;4.15;3.40;;;;;;;11.67;100.00;99928.78;5034424;28;20084;-73
2022/12/29 00:35:07;;;;;;;5.65;3.15;;;;;;;11.77;100.00;99920.84;5037887;28;20045;-72
2022/12/29 00:36:00;;;;;;;6.13;3.25;;;;;;;12.01;100.00;99889.44;5045797;28;20429;-72
2022/12/29 00:44:06;;;;;;;5.95;3.65;;;;;;;12.00;100.00;99874.38;5042300;28;20056;-73
2022/12/29 00:46:38;;;;;;;5.00;3.00;;;;;;;11.83;100.00;99882.97;5032094;28;20049;-72
2022/12/29 00:51:50;;;;;;;6.38;3.00;;;;;;;11.92;100.00;99869.69;5037972;28;20282;-72
2022/12/29 00:54:16;;;;;;;2.75;2.40;;;;;;;11.89;100.00;99871.75;5032010;28;20075;-72
2022/12/29 00:56:41;;;;;;;2.75;2.33;;;;;;;11.90;100.00;99877.00;5038919;28;20052;-72
2022/12/29 00:59:09;;;;;;;5.18;2.83;;;;;;;11.95;100.00;99859.69;5037143;28;20048;-72
2022/12/29 01:01:35;;;;;;;5.43;2.17;;;;;;;11.84;100.00;99860.63;5041894;28;20401;-72
2022/12/29 01:04:01;;;;;;;3.50;2.33;;;;;;;11.90;100.00;99852.94;5041563;28;20163;-72
2022/12/29 01:06:26;;;;;;;3.33;2.17;;;;;;;12.01;100.00;99857.38;5039787;28;20057;-73
2022/12/29 01:11:37;;;;;;;3.35;2.00;;;;;;;12.00;100.00;99862.81;5037386;28;20048;-72
2022/12/29 01:14:03;;;;;;;3.83;1.80;;;;;;;11.90;100.00;99860.13;5043449;28;20154;-73
2022/12/29 01:16:30;;;;;;;3.08;1.48;;;;;;;11.98;100.00;99862.13;5049587;28;20036;-73
2022/12/29 01:18:55;;;;;;;3.65;1.52;;;;;;;11.93;100.00;99867.84;5032345;28;20044;-72
2022/12/29 01:21:21;;;;;;;2.17;1.33;;;;;;;11.47;100.00;99857.47;5040493;28;20812;-73
2022/12/29 01:23:46;;;;;;;3.25;1.10;;;;;;;11.50;100.00;99852.75;5031720;28;20088;-72
2022/12/29 01:26:13;;;;;;;1.83;1.23;;;;;;;11.58;100.00;99850.25;5036162;28;20492;-72
2022/12/29 01:28:39;;;;;;;3.15;1.08;;;;;;;11.63;100.00;99848.06;5029722;28;20049;-72
2022/12/29 01:31:15;;;;;;;3.80;1.23;;;;;;;11.59;100.00;99845.78;5038041;28;20605;-72
2022/12/29 01:33:41;;;;;;;1.98;1.70;;;;;;;11.44;100.00;99842.56;5042544;28;20081;-72
2022/12/29 01:36:09;;;;;;;3.95;1.85;;;;;;;11.57;100.00;99845.91;5027719;28;20494;-72
2022/12/29 01:38:36;;;;;;;1.60;1.25;;;;;;;11.62;100.00;99850.88;5028885;28;20115;-72
2022/12/29 01:41:02;;;;;;;2.10;1.30;;;;;;;11.90;100.00;99831.56;5038105;28;20049;-72
2022/12/29 01:43:49;;;;;;;1.58;1.10;;;;;;;11.55;100.00;99825.66;5040816;28;20080;-72
2022/12/29 01:46:17;;;;;;;1.45;1.20;;;;;;;11.53;100.00;99823.09;5033466;28;20046;-72
2022/12/29 01:48:47;;;;;;;1.35;1.20;;;;;;;11.59;100.00;99822.59;5030970;28;20584;-72
2022/12/29 01:51:14;;;;;;;2.17;1.27;;;;;;;11.66;100.00;99828.28;5032020;28;20095;-72
2022/12/29 01:53:39;;;;;;;1.80;1.70;;;;;;;11.80;100.00;99825.28;5024756;28;20041;-72
2022/12/29 01:56:11;;;;;;;2.00;1.80;;;;;;;11.81;100.00;99807.44;5037029;28;20607;-72
2022/12/29 01:58:41;;;;;;;2.50;2.00;;;;;;;11.86;100.00;99807.94;5024776;28;20164;-72
2022/12/29 02:01:07;;;;;;;4.18;2.60;;;;;;;11.80;100.00;99808.44;5039806;28;20059;-72
2022/12/29 02:03:36;;;;;;;2.97;2.60;;;;;;;11.83;100.00;99811.69;5033962;28;20058;-72
2022/12/29 02:06:11;;;;;;;3.28;2.90;;;;;;;12.01;100.00;99806.59;5039783;28;20055;-72
2022/12/29 02:08:38;;;;;;;3.30;2.90;;;;;;;12.05;100.00;99816.06;5029692;28;20055;-72
2022/12/29 02:11:05;;;;;;;5.93;2.92;;;;;;;12.00;100.00;99814.75;5038660;28;20843;-72
2022/12/29 02:13:33;;;;;;;5.20;2.60;;;;;;;12.06;100.00;99819.56;5037243;28;20091;-72
2022/12/29 02:16:42;;;;;;;3.80;2.47;;;;;;;11.99;100.00;99813.88;5039587;28;20037;-72
2022/12/29 02:19:38;;;;;;;3.50;2.58;;;;;;;11.99;100.00;99813.03;5024326;28;20045;-72
2022/12/29 02:22:12;;;;;;;3.03;2.30;;;;;;;12.15;100.00;99808.09;5036793;28;20045;-71
2022/12/29 02:24:57;;;;;;;3.38;2.20;;;;;;;12.08;100.00;99801.56;5040887;28;20099;-73
2022/12/29 02:27:34;;;;;;;7.50;2.67;;;;;;;12.21;100.00;99804.03;5035730;28;20052;-72
2022/12/29 02:30:38;;;;;;;2.72;2.35;;;;;;;12.11;100.00;99802.16;5036267;28;20045;-72
2022/12/29 02:33:21;;;;;;;3.15;2.00;;;;;;;11.88;100.00;99800.63;5016444;28;20059;-72
2022/12/29 02:36:05;;;;;;;2.35;1.80;;;;;;;12.19;100.00;99793.47;5041450;28;20219;-72
2022/12/29 02:38:42;;;;;;;4.93;2.25;;;;;;;12.13;100.00;99786.00;5029144;28;20084;-72
2022/12/29 02:41:23;;;;;;;2.85;2.00;;;;;;;12.34;100.00;99781.44;5037073;28;20044;-72
2022/12/29 02:44:03;;;;;;;4.07;1.83;;;;;;;12.03;100.00;99777.06;5046433;28;20053;-72
2022/12/29 02:46:41;;;;;;;3.47;1.80;;;;;;;12.01;100.00;99790.59;5013518;28;20511;-72
2022/12/29 02:49:26;;;;;;;2.28;1.30;;;;;;;12.19;100.00;99788.13;5037344;28;20076;-72
2022/12/29 02:51:58;;;;;;;3.08;1.42;;;;;;;12.10;100.00;99780.94;5030608;28;20049;-72
2022/12/29 02:54:42;;;;;;;2.13;1.42;;;;;;;12.05;100.00;99785.78;5036054;28;20053;-72
2022/12/29 02:57:35;;;;;;;5.45;1.73;;;;;;;12.41;100.00;99771.91;5034047;28;20048;-72
2022/12/29 03:00:07;;;;;;;2.92;1.20;;;;;;;12.13;100.00;99778.81;5022505;28;20044;-72
2022/12/29 03:02:54;;;;;;;3.88;1.45;;;;;;;12.28;100.00;99771.28;5023058;28;20052;-72
2022/12/29 03:05:38;;;;;;;2.00;1.23;;;;;;;12.17;100.00;99771.38;5046674;28;20612;-72
2022/12/29 03:08:34;;;;;;;2.30;1.17;;;;;;;12.25;100.00;99779.59;5020604;28;20080;-72
2022/12/29 03:17:23;;;;;;;3.45;1.23;;;;;;;12.35;100.00;99767.13;5027647;28;20081;-72
2022/12/29 03:19:52;;;;;;;2.95;1.00;;;;;;;12.50;100.00;99759.56;5019194;28;20045;-72
2022/12/29 03:22:28;;;;;;;4.43;1.00;;;;;;;12.25;100.00;99752.00;5037326;28;20498;-72
2022/12/29 03:25:22;;;;;;;1.20;0.80;;;;;;;12.16;100.00;99751.84;5035651;28;20045;-72
2022/12/29 03:27:53;;;;;;;;;;;;;;;12.13;100.00;99756.59;5028851;28;20052;-72
2022/12/29 03:30:20;;;;;;;1.98;1.05;;;;;;;12.12;100.00;99758.41;5028042;28;19936;-72
2022/12/29 03:33:01;;;;;;;1.20;0.80;;;;;;;11.80;100.00;99761.19;5017521;28;20048;-72
2022/12/29 03:35:34;;;;;;;2.70;1.08;;;;;;;11.78;100.00;99752.44;5032037;28;20049;-72
2022/12/29 03:38:10;;;;;;;2.03;1.00;;;;;;;11.96;100.00;99751.88;5039858;28;20037;-72
2022/12/29 03:40:38;;;;;;;9.52;1.20;;;;;;;11.98;100.00;99750.75;5019893;28;20045;-72
2022/12/29 03:43:04;;;;;;;4.82;1.13;;;;;;;12.11;100.00;99743.38;5033827;28;20768;-72
2022/12/29 03:45:32;;;;;;;5.18;1.10;;;;;;;11.99;100.00;99747.09;5032189;28;20051;-72
2022/12/29 03:47:58;;;;;;;3.33;1.30;;;;;;;12.00;100.00;99753.28;5038797;28;20041;-72
2022/12/29 03:50:25;;;;;;;4.47;1.00;;;;;;;12.00;100.00;99747.94;5029933;28;20041;-73
2022/12/29 03:52:50;;;;;;;5.15;1.10;;;;;;;12.24;100.00;99744.97;5029117;28;20548;-72
2022/12/29 03:55:16;;;;;;;1.40;0.90;;;;;;;12.09;100.00;99756.00;5028831;28;20416;-72
2022/12/29 03:57:42;;;;;;;5.80;1.38;;;;;;;12.09;100.00;99763.19;5033396;28;20043;-72
2022/12/29 04:00:12;;;;;;;2.97;0.90;;;;;;;12.02;100.00;99754.00;5039244;28;20049;-71
2022/12/29 04:02:49;;;;;;;1.40;0.80;;;;;;;12.00;100.00;99747.94;5034453;28;20072;-71
2022/12/29 04:05:19;;;;;;;5.07;1.33;;;;;;;12.17;100.00;99758.03;5036251;28;20592;-71
2022/12/29 04:07:45;;;;;;;3.45;0.95;;;;;;;12.21;100.00;99766.63;5037931;28;20140;-72
2022/12/29 04:10:11;;;;;;;3.42;1.00;;;;;;;12.05;100.00;99761.75;5038299;28;20044;-72
2022/12/29 04:12:37;;;;;;;2.65;1.00;;;;;;;12.19;100.00;99761.41;5039126;28;20037;-72
2022/12/29 04:15:04;;;;;;;1.30;0.90;;;;;;;12.17;100.00;99764.22;5038723;28;20048;-72
2022/12/29 04:17:31;;;;;;;2.35;0.95;;;;;;;12.39;100.00;99763.16;5038359;28;20770;-72
2022/12/29 04:20:59;;;;;;;3.42;1.42;;;;;;;12.32;100.00;99769.19;5040157;28;20045;-72
2022/12/29 04:22:42;;;;;;;2.08;1.13;;;;;;;12.41;100.00;99769.25;5035149;28;20107;-72
2022/12/29 04:25:08;;;;;;;2.50;1.23;;;;;;;12.25;100.00;99765.34;5035608;28;20042;-72
2022/12/29 04:27:33;;;;;;;1.30;1.10;;;;;;;12.38;100.00;99764.16;5040519;28;20279;-72
2022/12/29 04:30:22;;;;;;;2.90;0.90;;;;;;;12.35;100.00;99758.22;5035522;28;20045;-72
2022/12/29 04:33:04;;;;;;;7.72;1.35;;;;;;;12.32;100.00;99754.00;5038628;28;20529;-72
2022/12/29 04:35:29;;;;;;;2.08;1.27;;;;;;;12.30;100.00;99768.47;5038548;28;20052;-72
2022/12/29 04:37:55;;;;;;;1.50;1.00;;;;;;;12.25;100.00;99766.22;5038684;28;20044;-72
2022/12/29 04:40:20;;;;;;;2.17;0.98;;;;;;;12.28;100.00;99759.75;5038270;28;20044;-72
2022/12/29 04:42:46;;;;;;;2.00;0.98;;;;;;;12.15;100.00;99760.84;5021595;28;20060;-72
2022/12/29 04:45:12;;;;;;;6.50;1.10;;;;;;;12.37;100.00;99767.81;5034280;28;20437;-72
2022/12/29 04:47:53;;;;;;;3.95;1.35;;;;;;;12.37;100.00;99778.50;5033561;28;20056;-72
2022/12/29 04:50:28;;;;;;;11.20;1.98;;;;;;;12.13;100.00;99775.31;5031040;28;20133;-73
2022/12/29 04:53:25;;;;;;;5.00;1.45;;;;;;;11.95;100.00;99775.09;5021253;28;20073;-73
2022/12/29 04:55:53;;;;;;;5.43;1.10;;;;;;;11.57;100.00;99775.66;5028533;28;20085;-72
2022/12/29 04:58:20;;;;;;;3.95;1.20;;;;;;;11.63;100.00;99772.44;5039209;28;20099;-73
2022/12/29 05:00:46;;;;;;;9.15;1.25;;;;;;;11.72;100.00;99790.38;5029655;28;20053;-76
2022/12/29 05:03:11;;;;;;;3.63;1.23;;;;;;;11.84;100.00;99785.81;5041269;28;20797;-73
2022/12/29 05:05:40;;;;;;;1.75;1.15;;;;;;;11.58;100.00;99786.19;5032857;28;20053;-72
2022/12/29 05:08:06;;;;;;;5.68;1.30;;;;;;;11.50;100.00;99782.50;5038436;28;20079;-72
2022/12/29 05:10:31;;;;;;;8.77;1.95;;;;;;;11.61;100.00;99780.59;5039680;28;20056;-72
2022/12/29 05:13:00;;;;;;;2.85;1.15;;;;;;;11.50;100.00;99786.00;5040448;28;20545;-72
2022/12/29 05:15:26;;;;;;;6.30;1.38;;;;;;;11.71;100.00;99790.50;5038143;28;20102;-72
2022/12/29 05:17:52;;;;;;;2.25;0.93;;;;;;;11.64;100.00;99792.81;5037034;28;20049;-72
2022/12/29 05:20:17;;;;;;;4.57;1.50;;;;;;;11.70;100.00;99789.66;5033123;28;20111;-72
2022/12/29 05:22:43;;;;;;;6.45;1.27;;;;;;;11.53;100.00;99803.56;5025967;28;20063;-72
2022/12/29 05:25:09;;;;;;;4.97;1.05;;;;;;;11.73;100.00;99808.06;5028400;28;20044;-73
2022/12/29 05:27:46;;;;;;;6.07;1.13;;;;;;;11.39;100.00;99826.06;5039163;28;20048;-72
2022/12/29 05:30:23;;;;;;;3.38;1.17;;;;;;;11.40;100.00;99827.78;5036159;28;20056;-72
2022/12/29 05:32:49;;;;;;;4.97;1.40;;;;;;;11.26;100.00;99828.94;5036814;28;20048;-73
2022/12/29 05:35:16;;;;;;;3.65;1.30;;;;;;;11.05;100.00;99852.03;5031724;28;20088;-72
2022/12/29 05:37:41;;;;;;;7.60;2.22;;;;;;;11.35;100.00;99851.34;5021561;28;20076;-72
2022/12/29 05:40:07;;;;;;;3.22;1.30;;;;;;;11.01;100.00;99864.78;5047159;28;20111;-72
2022/12/29 05:42:33;;;;;;;7.03;1.40;;;;;;;11.33;100.00;99861.28;5040287;28;20052;-73
2022/12/29 05:45:22;;;;;;;4.05;2.28;;;;;;;11.21;100.00;99865.81;5023751;28;20075;-73
2022/12/29 05:48:06;;;;;;;9.65;1.60;;;;;;;11.08;100.00;99867.78;5035828;28;20060;-72
2022/12/29 05:50:50;;;;;;;9.90;1.75;;;;;;;11.10;100.00;99865.84;5025913;28;20109;-73
2022/12/29 05:53:20;;;;;;;7.15;1.60;;;;;;;11.07;100.00;99864.25;5027957;28;20122;-72
2022/12/29 05:55:49;;;;;;;6.82;2.45;;;;;;;10.88;100.00;99882.72;5030588;28;20061;-72
2022/12/29 05:58:16;;;;;;;4.70;1.73;;;;;;;10.93;100.00;99879.69;5026519;28;20506;-72
2022/12/29 06:00:42;;;;;;;2.42;1.45;;;;;;;10.86;100.00;99888.19;5007547;28;20048;-72
2022/12/29 06:03:09;;;;;;;6.18;1.83;;;;;;;11.02;100.00;99871.78;5039454;28;20037;-72
2022/12/29 06:05:34;;;;;;;4.70;1.40;;;;;;;10.95;100.00;99885.75;5038880;28;20056;-73
2022/12/29 06:08:00;;;;;;;5.55;1.90;;;;;;;10.95;100.00;99875.94;5034433;28;20033;-71
2022/12/29 06:10:26;;;;;;;7.30;1.50;;;;;;;10.83;100.00;99872.41;5039007;28;20051;-73
2022/12/29 06:13:09;;;;;;;8.73;1.95;;;;;;;10.84;100.00;99883.94;5034935;28;20099;-72
2022/12/29 06:15:38;;;;;;;6.47;1.20;;;;;;;10.73;100.00;99882.13;5032384;28;20040;-72
2022/12/29 06:18:06;;;;;;;10.85;1.30;;;;;;;11.00;100.00;99886.25;5036810;28;20136;-73
2022/12/29 06:20:33;;;;;;;3.83;1.83;;;;;;;11.20;100.00;99887.31;5037171;28;20212;-73
2022/12/29 06:23:01;;;;;;;8.13;1.33;;;;;;;11.09;100.00;99883.69;5029142;28;20040;-72
2022/12/29 06:25:28;;;;;;;12.07;2.00;;;;;;;11.16;100.00;99878.69;5037044;28;20044;-72
2022/12/29 06:27:53;;;;;;;18.48;2.17;;;;;;;10.81;100.00;99879.72;5036448;28;20045;-72
2022/12/29 06:30:19;;;;;;;8.05;1.73;;;;;;;11.05;100.00;99876.91;5039149;28;20044;-72
2022/12/29 06:32:45;;;;;;;10.23;3.17;;;;;;;10.69;100.00;99874.47;5032158;28;20064;-72
2022/12/29 06:35:11;;;;;;;9.07;1.88;;;;;;;10.68;100.00;99884.31;5039067;28;20407;-72
2022/12/29 06:37:44;;;;;;;7.80;1.77;;;;;;;10.78;100.00;99889.75;5036724;28;20699;-72
2022/12/29 06:40:11;;;;;;;8.50;1.55;;;;;;;10.77;100.00;99894.25;5034820;28;20037;-72
2022/12/29 06:42:55;;;;;;;5.30;1.40;;;;;;;10.92;100.00;99894.00;5032317;28;20868;-72
2022/12/29 06:45:33;;;;;;;8.75;2.00;;;;;;;10.80;100.00;99903.84;5028008;28;20052;-72
2022/12/29 06:47:58;;;;;;;3.72;1.67;;;;;;;10.73;100.00;99899.94;5034513;28;20049;-72
2022/12/29 06:50:24;;;;;;;8.23;1.75;;;;;;;10.95;100.00;99896.44;5040752;28;20060;-72
2022/12/29 06:52:49;;;;;;;4.28;1.65;;;;;;;10.90;100.00;99899.47;5038221;28;20106;-73
2022/12/29 06:55:14;;;;;;;9.15;1.83;;;;;;;10.97;100.00;99892.66;5039122;28;20433;-71
2022/12/29 06:57:40;;;;;;;14.68;1.92;;;;;;;11.05;100.00;99879.56;5040962;28;20055;-72
2022/12/29 07:00:06;;;;;;;9.00;1.23;;;;;;;11.16;100.00;99889.38;5030208;28;20510;-72
2022/12/29 07:02:31;;;;;;;8.52;1.23;;;;;;;11.09;100.00;99883.69;5035871;28;20504;-73
2022/12/29 07:04:57;;;;;;;6.32;1.25;;;;;;;11.24;100.00;99880.72;5030491;28;20099;-72
2022/12/29 07:07:22;;;;;;;6.10;1.38;;;;;;;11.30;100.00;99875.75;5034086;28;20045;-72
2022/12/29 07:09:48;;;;;;;6.90;1.08;;;;;;;11.20;100.00;99905.97;5035791;28;20053;-72
2022/12/29 07:12:13;;;;;;;5.13;1.25;;;;;;;10.96;100.00;99896.31;5039795;28;20049;-73
2022/12/29 07:14:39;;;;;;;4.10;1.40;;;;;;;11.13;100.00;99900.28;5030327;28;20044;-72
2022/12/29 07:17:06;;;;;;;8.18;1.23;;;;;;;11.14;100.00;99915.31;5036995;28;20045;-72
2022/12/29 07:19:32;;;;;;;6.85;1.20;;;;;;;11.18;99.77;99911.41;5032588;28;20072;-74
2022/12/29 07:21:57;;;;;;;6.25;1.27;;;;;;;11.37;98.06;99910.78;5038834;28;20043;-72
2022/12/29 07:24:25;;;;;;;4.35;1.20;;;;;;;11.34;97.07;99916.34;5036984;28;20402;-72
2022/12/29 07:26:51;;;;;;;5.57;1.85;;;;;;;11.21;98.46;99899.66;5035921;28;20048;-72
2022/12/29 07:29:16;;;;;;;6.72;1.50;;;;;;;11.18;97.98;99907.91;5037955;28;20593;-72
2022/12/29 07:31:42;;;;;;;3.08;1.70;;;;;;;11.46;95.95;99904.69;5036940;28;20079;-73
2022/12/29 07:34:08;;;;;;;11.88;1.70;;;;;;;11.49;96.68;99903.56;5029236;28;20041;-72
2022/12/29 07:36:34;;;;;;;12.88;1.38;;;;;;;11.39;96.73;99917.66;5035960;28;20040;-72
2022/12/29 07:38:59;;;;;;;4.20;1.88;;;;;;;11.29;97.15;99905.22;5036552;28;20547;-72
2022/12/29 07:41:25;;;;;;;11.60;1.98;;;;;;;11.47;96.07;99902.88;5028881;28;20045;-72
2022/12/29 07:43:50;;;;;;;5.55;1.50;;;;;;;11.42;96.31;99919.25;5027209;28;20040;-72
2022/12/29 07:46:33;;;;;;;6.35;1.25;;;;;;;11.47;96.70;99908.22;5029360;28;20041;-73
2022/12/29 07:48:59;;;;;;;6.68;1.50;;;;;;;11.53;94.65;99913.88;5038257;28;20076;-72
2022/12/29 07:51:24;;;;;;;7.43;1.65;;;;;;;11.48;93.69;99913.41;5037995;28;20057;-72
2022/12/29 07:53:49;;;;;;;10.70;1.67;;;;;;;11.61;92.10;99916.78;5038818;28;20045;-72
2022/12/29 07:56:15;;;;;;;4.97;1.50;;;;;;;11.66;91.70;99929.75;5035487;28;20121;-72
2022/12/29 07:58:42;;;;;;;6.75;1.50;;;;;;;11.57;92.66;99926.00;5034487;28;20080;-72
2022/12/29 08:01:07;;;;;;;3.35;1.05;;;;;;;11.67;92.05;99945.63;5036588;28;20107;-72
2022/12/29 08:03:33;;;;;;;3.28;1.42;;;;;;;11.70;91.53;99949.03;5032248;28;20053;-72
2022/12/29 08:05:58;;;;;;;9.00;1.52;;;;;;;11.77;90.43;99958.25;5030651;28;20056;-71
2022/12/29 08:08:24;;;;;;;8.52;1.63;;;;;;;11.84;90.47;99970.97;5038102;28;20056;-72
2022/12/29 08:10:49;;;;;;;3.88;1.40;;;;;;;11.62;89.97;99960.34;5036083;28;20048;-72
2022/12/29 08:13:14;;;;;;;6.47;1.50;;;;;;;11.67;89.09;99958.16;5031771;28;20058;-72
2022/12/29 08:15:40;;;;;;;5.60;1.77;;;;;;;11.92;87.86;99955.19;5038400;28;20045;-72
2022/12/29 08:18:06;;;;;;;9.57;2.20;;;;;;;11.73;88.06;99968.31;5031935;28;20053;-73
2022/12/29 08:20:31;;;;;;;7.85;1.50;;;;;;;11.56;87.49;99952.84;5038484;28;20672;-72
2022/12/29 08:22:57;;;;;;;6.13;1.48;;;;;;;11.45;87.49;99958.22;5032244;28;20135;-72
2022/12/29 08:25:22;;;;;;;10.45;2.05;;;;;;;11.67;86.31;99969.69;5034639;28;20057;-72
2022/12/29 08:27:48;;;;;;;10.55;2.05;;;;;;;11.56;86.90;99974.22;5037158;28;20112;-73
2022/12/29 08:30:13;;;;;;;7.15;1.80;;;;;;;11.62;86.17;99981.72;5012014;28;20072;-73
2022/12/29 08:32:39;;;;;;;3.35;1.48;;;;;;;11.87;84.52;99991.25;5035379;28;20032;-72
2022/12/29 08:35:05;;;;;;;9.63;1.73;;;;;;;11.79;84.13;99975.81;5038555;28;20076;-72
2022/12/29 08:37:32;;;;;;;13.68;3.35;;;;;;;11.72;84.27;99987.16;5043790;28;20099;-72
2022/12/29 08:39:58;;;;;;;17.50;2.03;;;;;;;11.89;84.31;99991.97;5037132;28;20535;-73
2022/12/29 08:42:24;;;;;;;4.88;1.65;;;;;;;11.79;84.82;99975.81;5041173;28;20079;-73
2022/12/29 08:44:50;;;;;;;12.23;2.30;;;;;;;11.85;84.38;99975.38;5042518;28;20056;-73
2022/12/29 08:47:15;;;;;;;9.00;1.88;;;;;;;11.63;85.57;99965.56;5038348;28;20098;-72
2022/12/29 08:49:41;;;;;;;10.00;2.33;;;;;;;11.95;85.24;99969.25;5012910;28;20047;-71
2022/12/29 08:52:07;;;;;;;9.68;2.75;;;;;;;11.75;86.21;99973.56;5028831;28;20060;-70
2022/12/29 08:54:33;;;;;;;14.07;3.15;;;;;;;11.92;85.32;99957.00;5040255;28;20152;-73
2022/12/29 08:56:59;;;;;;;21.08;3.90;;;;;;;12.02;84.46;99960.59;5025442;28;20048;-74
2022/12/29 08:59:32;;;;;;;8.68;1.70;;;;;;;12.05;85.43;99963.03;5035494;28;20060;-74
2022/12/29 09:01:58;;;;;;;10.52;1.80;;;;;;;12.00;85.35;99970.59;5036609;28;20040;-71
2022/12/29 09:04:23;;;;;;;9.38;2.22;;;;;;;12.12;85.99;99971.38;5039370;28;20178;-71
2022/12/29 09:06:49;;;;;;;12.40;2.90;;;;;;;12.09;86.04;99964.44;5039408;28;20046;-71
2022/12/29 09:09:15;;;;;;;11.68;2.35;;;;;;;12.04;86.20;99953.28;5036244;28;20052;-73
2022/12/29 09:11:41;;;;;;;7.00;2.40;;;;;;;11.97;87.27;99959.28;5038194;28;20041;-73
2022/12/29 09:14:07;;;;;;;10.93;2.75;;;;;;;11.99;87.09;99963.53;5039986;28;20136;-71
2022/12/29 09:16:33;;;;;;;13.57;1.63;;;;;;;11.95;87.90;99961.22;5036133;28;20421;-71
2022/12/29 09:18:59;;;;;;;6.38;1.60;;;;;;;11.99;86.06;99963.53;5031571;28;20049;-73
2022/12/29 09:21:24;;;;;;;11.50;2.03;;;;;;;11.76;86.24;99965.41;5041862;28;20498;-73
2022/12/29 09:23:50;;;;;;;10.35;1.80;;;;;;;12.15;84.33;99969.31;5038012;28;20033;-73
2022/12/29 09:26:15;;;;;;;9.98;2.08;;;;;;;11.87;85.28;99972.56;5030632;28;20744;-73
2022/12/29 09:28:41;;;;;;;9.02;2.10;;;;;;;11.76;89.34;99981.44;5040363;28;20132;-74
2022/12/29 09:31:07;;;;;;;11.93;2.03;;;;;;;11.59;92.20;99997.97;5039475;28;20045;-73
2022/12/29 09:33:35;;;;;;;16.25;3.88;;;;;;;11.42;95.57;100002.00;5036802;28;20045;-73
2022/12/29 09:36:01;;;;;;;14.05;2.80;;;;;;;11.21;97.55;100001.91;5039101;28;20148;-73
2022/12/29 09:38:27;;;;;;;8.63;1.88;;;;;;;11.22;96.36;100000.94;5039195;28;20494;-73
2022/12/29 09:40:56;;;;;;;16.20;2.58;;;;;;;11.54;96.24;100009.03;5040224;28;20080;-74
2022/12/29 09:43:50;;;;;;;13.90;2.45;;;;;;;11.49;96.73;100010.38;5042972;28;20049;-73
2022/12/29 09:46:28;;;;;;;11.52;1.83;;;;;;;11.49;95.22;100005.03;5036332;28;20624;-73
2022/12/29 09:49:07;;;;;;;8.93;1.95;;;;;;;11.61;93.96;99998.72;5041734;28;20041;-73
2022/12/29 09:51:35;;;;;;;11.93;2.05;;;;;;;11.75;92.90;100008.28;5038398;28;20782;-73
2022/12/29 09:54:33;;;;;;;12.35;2.10;;;;;;;11.92;90.17;100005.09;5037052;28;20037;-70
2022/12/29 09:56:59;;;;;;;15.00;1.98;;;;;;;11.65;91.50;100006.34;5039145;28;20143;-73
2022/12/29 09:59:34;;;;;;;10.02;1.88;;;;;;;11.77;91.43;100003.66;5042790;28;20130;-73
2022/12/29 10:02:27;;;;;;;10.73;1.73;;;;;;;11.96;89.81;100024.41;5028924;28;20592;-73
2022/12/29 10:04:53;;;;;;;15.55;2.25;;;;;;;12.03;90.25;100029.09;5034556;28;20060;-71
2022/12/29 10:07:38;;;;;;;9.82;1.70;;;;;;;11.76;91.51;100029.50;5040257;28;20040;-73
2022/12/29 10:10:06;;;;;;;8.65;1.50;;;;;;;11.73;92.29;100039.59;5035330;28;20807;-71
2022/12/29 10:12:51;;;;;;;6.68;1.48;;;;;;;11.40;94.53;100009.31;5040230;28;20075;-74
2022/12/29 10:15:37;;;;;;;8.02;1.48;;;;;;;11.76;92.65;100036.69;5034573;28;20118;-73
2022/12/29 10:18:08;;;;;;;8.43;1.67;;;;;;;11.55;93.88;100047.28;5032087;28;20056;-74
2022/12/29 10:21:20;;;;;;;12.32;1.90;;;;;;;11.68;94.98;100050.63;5033097;28;20051;-71
2022/12/29 10:23:53;;;;;;;9.00;1.50;;;;;;;11.62;96.86;100057.31;4998763;28;20396;-73
2022/12/29 10:26:27;;;;;;;;;;;;;;;11.51;98.78;100059.16;4999221;28;20646;-71
2022/12/29 10:28:58;;;;;;;6.20;1.48;;;;;;;11.40;100.00;100060.03;4994564;28;19976;-73
2022/12/29 10:31:32;;;;;;;8.90;1.55;;;;;;;11.56;99.59;100060.50;4964522;28;20145;-74
2022/12/29 10:34:01;;;;;;;9.52;1.67;;;;;;;11.31;100.00;100060.75;4996949;28;20060;-73
2022/12/29 10:36:34;;;;;;;8.27;2.17;;;;;;;11.77;98.21;100076.59;4994267;28;20186;-73
2022/12/29 10:39:30;;;;;;;9.15;1.30;;;;;;;11.31;100.00;100079.44;4979540;28;20057;-71
2022/12/29 10:42:09;;;;;;;10.30;1.73;;;;;;;11.35;100.00;100080.91;4981727;28;20061;-71
2022/12/29 10:44:35;;;;;;;10.63;1.63;;;;;;;11.02;100.00;100089.72;4979475;28;20049;-72
2022/12/29 10:47:05;;;;;;;10.13;2.15;;;;;;;10.98;100.00;100082.91;4977688;28;20510;-70
2022/12/29 10:49:40;;;;;;;6.68;1.45;;;;;;;10.97;100.00;100082.06;4991208;28;20168;-73
2022/12/29 10:52:07;;;;;;;12.13;2.40;;;;;;;10.97;100.00;100071.38;4989354;28;20141;-72
2022/12/29 10:54:44;;;;;;;6.15;1.38;;;;;;;11.28;100.00;100093.84;4997117;28;20061;-71
2022/12/29 10:57:26;;;;;;;9.10;1.52;;;;;;;11.34;100.00;100106.72;4996587;28;20477;-71
2022/12/29 10:59:52;;;;;;;12.95;1.98;;;;;;;11.08;100.00;100107.91;5017423;28;20083;-71
2022/12/29 11:02:32;;;;;;;6.07;1.65;;;;;;;11.22;100.00;100112.19;5033023;28;20053;-72
2022/12/29 11:05:29;;;;;;;11.38;1.83;;;;;;;11.44;100.00;100116.66;5031306;28;20130;-71
2022/12/29 11:08:01;;;;;;;7.97;1.58;;;;;;;11.33;100.00;100110.34;5045681;28;20566;-71
2022/12/29 11:10:32;;;;;;;14.07;1.67;;;;;;;11.13;100.00;100103.91;5032866;28;20058;-71
2022/12/29 11:13:04;;;;;;;6.10;1.60;;;;;;;11.39;100.00;100115.22;5034783;28;20059;-71
2022/12/29 11:15:49;;;;;;;6.55;1.85;;;;;;;11.76;100.00;100124.81;5037039;28;20041;-71
2022/12/29 11:18:24;;;;;;;9.40;1.95;;;;;;;11.39;100.00;100117.03;5040217;28;20048;-71
2022/12/29 11:20:55;;;;;;;13.73;1.73;;;;;;;11.68;100.00;100117.41;5029010;28;20141;-71
2022/12/29 11:23:25;;;;;;;5.97;2.17;;;;;;;11.81;100.00;100130.66;5033769;28;20093;-72
2022/12/29 11:26:17;;;;;;;13.30;2.50;;;;;;;12.08;100.00;100133.78;5024231;28;20466;-71
2022/12/29 11:29:05;;;;;;;6.57;1.63;;;;;;;12.12;99.03;100129.06;5034014;28;20552;-73
2022/12/29 11:31:40;;;;;;;5.05;2.40;;;;;;;12.00;100.00;100133.56;5023011;28;20491;-70
2022/12/29 11:34:09;;;;;;;20.08;3.50;;;;;;;11.67;100.00;100126.41;5034291;28;20110;-71
2022/12/29 11:36:35;;;;;;;13.68;3.42;;;;;;;11.84;100.00;100147.28;5040513;28;20053;-71
2022/12/29 11:39:02;;;;;;;11.23;2.03;;;;;;;11.59;100.00;100153.69;5041488;28;20040;-71
2022/12/29 11:41:30;;;;;;;11.88;1.92;;;;;;;11.47;100.00;100148.47;5037121;28;20118;-71
2022/12/29 11:44:01;;;;;;;12.15;3.20;;;;;;;11.85;100.00;100165.03;5031054;28;20128;-70
2022/12/29 11:46:36;;;;;;;19.83;4.05;;;;;;;11.91;100.00;100156.53;5038844;28;20135;-70
2022/12/29 11:49:03;;;;;;;10.10;2.83;;;;;;;12.12;100.00;100159.28;5036743;28;20052;-71
2022/12/29 11:51:42;;;;;;;13.02;2.97;;;;;;;11.91;99.59;100158.34;5037246;28;20049;-71
2022/12/29 11:54:27;;;;;;;12.93;3.75;;;;;;;11.90;100.00;100162.00;5031203;28;20132;-70
2022/12/29 11:56:53;;;;;;;10.75;2.70;;;;;;;11.78;98.52;100166.44;5035888;28;20139;-71
2022/12/29 11:59:31;;;;;;;13.40;2.92;;;;;;;12.13;98.10;100168.16;5042902;28;20091;-72
2022/12/29 12:01:58;;;;;;;11.77;2.67;;;;;;;12.08;98.33;100171.19;5039829;28;20051;-71
2022/12/29 12:04:28;;;;;;;15.38;3.63;;;;;;;12.03;98.48;100169.88;5034058;28;20053;-71
2022/12/29 12:07:03;;;;;;;8.93;2.65;;;;;;;12.32;95.93;100181.75;5035526;28;20052;-71
2022/12/29 12:09:34;;;;;;;16.70;3.30;;;;;;;11.98;96.37;100182.75;5025253;28;20049;-71
2022/12/29 12:12:01;;;;;;;19.30;4.22;;;;;;;11.86;96.61;100180.09;5044326;28;20151;-72
2022/12/29 12:14:30;;;;;;;25.02;4.20;;;;;;;11.78;94.51;100177.13;5035389;28;20811;-71
2022/12/29 12:17:21;;;;;;;9.35;2.63;;;;;;;11.89;96.13;100197.69;5044774;28;20048;-72